Time;durP1;ratioP1;P1;durP2;ratioP2;P2;SDS_P1;SDS_P2;PMS_P1;PMS_P2;Temp;Humidity;BMP_temperature;BMP_pressure;BME280_temperature;BME280_humidity;BME280_pressure;Samples;Min_cycle;Max_cycle;Signal;HPM_P1;HPM_P2
2021/10/06 05:24:48;;;;;;;17.00;8.80;;;;;;;10.34;56.08;102276.47;6138111;22;1453464;-59
2021/10/06 05:27:13;;;;;;;14.83;9.07;;;;;;;10.71;56.03;102323.34;6178223;23;20167;-59
2021/10/06 05:29:39;;;;;;;17.67;9.53;;;;;;;11.09;55.97;102381.66;6177806;23;20199;-65
2021/10/06 05:32:05;;;;;;;15.20;8.83;;;;;;;11.14;55.98;102377.69;6176947;23;20547;-63
2021/10/06 05:34:32;;;;;;;14.40;8.90;;;;;;;10.84;55.96;102333.66;6178240;23;20613;-61
2021/10/06 05:36:57;;;;;;;16.37;8.50;;;;;;;11.20;56.31;102388.03;6178293;23;20167;-60
2021/10/06 05:39:24;;;;;;;21.23;9.23;;;;;;;11.21;56.37;102378.50;6176653;23;20172;-60
2021/10/06 05:41:50;;;;;;;18.50;9.23;;;;;;;11.28;56.48;102386.06;6172147;23;20282;-60
2021/10/06 05:44:15;;;;;;;14.03;9.20;;;;;;;11.12;57.22;102364.22;6178685;23;20156;-60
2021/10/06 05:46:41;;;;;;;16.20;8.67;;;;;;;10.81;56.99;102294.84;6177547;23;20159;-60
2021/10/06 05:49:07;;;;;;;16.73;9.13;;;;;;;11.31;57.67;102374.13;6148415;23;20189;-60
2021/10/06 05:51:33;;;;;;;16.80;9.70;;;;;;;11.55;58.06;102409.47;6176574;23;20184;-60
2021/10/06 05:53:58;;;;;;;16.70;11.60;;;;;;;11.48;57.83;102388.03;6144941;23;20163;-61
2021/10/06 05:56:24;;;;;;;26.17;17.47;;;;;;;11.72;57.87;102403.94;6174899;23;20155;-61
2021/10/06 05:58:49;;;;;;;16.87;11.27;;;;;;;11.88;58.05;102418.22;6176828;23;20156;-59
2021/10/06 06:01:15;;;;;;;16.37;10.50;;;;;;;11.31;57.71;102318.63;6177695;23;20554;-61
2021/10/06 06:03:40;;;;;;;11.00;7.13;;;;;;;12.02;57.97;102418.22;6152632;23;20518;-60
2021/10/06 06:06:08;;;;;;;13.20;7.30;;;;;;;12.18;57.88;102426.09;6174181;23;20569;-62
2021/10/06 06:08:34;;;;;;;11.00;7.10;;;;;;;12.23;57.61;102422.94;6151069;23;20592;-60
2021/10/06 06:10:59;;;;;;;15.07;7.13;;;;;;;12.18;57.03;102423.34;6176107;23;20644;-61
2021/10/06 06:13:25;;;;;;;10.33;6.90;;;;;;;12.27;56.82;102402.28;6144326;23;20191;-63
2021/10/06 06:15:52;;;;;;;10.43;7.07;;;;;;;12.45;56.90;102419.69;6161129;23;20410;-63
2021/10/06 06:18:18;;;;;;;11.07;6.60;;;;;;;12.41;56.55;102398.66;6174176;23;20151;-60
2021/10/06 06:20:44;;;;;;;14.73;7.23;;;;;;;12.64;56.52;102427.59;6177788;23;20153;-60
2021/10/06 06:23:09;;;;;;;15.70;7.20;;;;;;;12.66;56.11;102421.63;6177827;23;20490;-60
2021/10/06 06:25:35;;;;;;;15.03;7.50;;;;;;;12.73;56.06;102433.50;6169122;23;20200;-60
2021/10/06 06:28:00;;;;;;;11.50;7.80;;;;;;;12.30;56.47;102379.22;6146831;23;20161;-60
2021/10/06 06:30:26;;;;;;;10.67;7.10;;;;;;;12.85;56.07;102437.81;6176559;23;20185;-60
2021/10/06 06:32:52;;;;;;;10.80;7.20;;;;;;;12.85;55.45;102443.38;6171764;23;20240;-60
2021/10/06 06:35:18;;;;;;;11.40;6.70;;;;;;;12.79;55.19;102425.53;6170089;23;20176;-60
2021/10/06 06:37:43;;;;;;;9.73;6.93;;;;;;;12.86;55.43;102439.44;6171064;23;20270;-60
2021/10/06 06:40:09;;;;;;;10.37;6.77;;;;;;;12.82;55.56;102419.16;6147408;23;20214;-61
2021/10/06 06:42:35;;;;;;;11.63;6.57;;;;;;;12.91;55.06;102456.47;6147917;23;20161;-61
2021/10/06 06:45:00;;;;;;;12.07;6.67;;;;;;;12.94;55.12;102425.06;6172331;23;20153;-61
2021/10/06 06:47:26;;;;;;;14.77;7.27;;;;;;;13.15;54.81;102443.66;6160144;23;20601;-61
2021/10/06 06:49:53;;;;;;;9.03;6.73;;;;;;;13.03;55.21;102427.44;6175938;23;20648;-61
2021/10/06 06:52:18;;;;;;;11.03;6.80;;;;;;;13.26;55.05;102453.53;6177637;23;20234;-61
2021/10/06 06:54:44;;;;;;;10.37;6.30;;;;;;;13.28;54.86;102436.44;6177319;23;20177;-60
2021/10/06 06:57:09;;;;;;;11.40;6.50;;;;;;;13.15;54.63;102390.78;6172548;23;20505;-61
2021/10/06 06:59:35;;;;;;;11.53;6.10;;;;;;;13.60;53.53;102432.25;6175829;23;20154;-60
2021/10/06 07:02:00;;;;;;;10.47;5.90;;;;;;;13.79;52.97;102444.81;6151737;23;20550;-60
2021/10/06 07:04:26;;;;;;;9.97;6.10;;;;;;;13.75;52.94;102432.91;6149664;23;20603;-60
2021/10/06 07:06:57;;;;;;;8.40;6.20;;;;;;;13.71;53.14;102391.16;6177867;23;20163;-60
2021/10/06 07:09:24;;;;;;;12.97;6.17;;;;;;;13.94;52.82;102441.50;6176635;23;20655;-60
2021/10/06 07:11:53;;;;;;;9.23;6.20;;;;;;;13.94;52.44;102432.34;6170804;23;20676;-60
2021/10/06 07:14:19;;;;;;;8.90;5.87;;;;;;;14.03;52.40;102435.47;6166074;23;20159;-60
2021/10/06 07:16:45;;;;;;;7.80;5.67;;;;;;;13.98;52.07;102388.53;6174649;23;20177;-60
2021/10/06 07:19:10;;;;;;;8.97;5.73;;;;;;;14.30;51.41;102431.59;6176106;23;20658;-60
2021/10/06 07:21:36;;;;;;;10.70;5.40;;;;;;;14.13;51.43;102385.16;6151280;23;20625;-60
2021/10/06 07:24:02;;;;;;;9.87;5.63;;;;;;;14.47;50.31;102450.16;6178562;23;20268;-60
2021/10/06 07:26:27;;;;;;;9.80;5.60;;;;;;;14.64;50.32;102437.19;6178234;23;20145;-60
2021/10/06 07:28:53;;;;;;;9.37;5.97;;;;;;;14.98;50.46;102438.78;6177710;23;20652;-61
2021/10/06 07:31:18;;;;;;;10.70;5.57;;;;;;;15.23;50.01;102446.81;6174070;23;20158;-60
2021/10/06 07:33:44;;;;;;;8.97;5.53;;;;;;;15.44;48.57;102440.94;6179224;23;20602;-61
2021/10/06 07:36:10;;;;;;;8.77;5.23;;;;;;;15.70;48.30;102462.50;6177467;23;20620;-60
2021/10/06 07:38:36;;;;;;;11.73;5.13;;;;;;;15.79;47.51;102440.38;6175569;23;20158;-60
2021/10/06 07:41:02;;;;;;;11.60;5.73;;;;;;;16.04;47.40;102457.53;6176602;23;20603;-61
2021/10/06 07:43:28;;;;;;;7.80;5.50;;;;;;;16.19;46.71;102461.66;6177602;23;20692;-61
2021/10/06 07:45:54;;;;;;;11.87;5.43;;;;;;;16.14;46.60;102456.56;6148091;23;20168;-60
2021/10/06 07:48:19;;;;;;;7.37;5.33;;;;;;;15.88;47.00;102460.97;6169980;23;20160;-60
2021/10/06 07:50:45;;;;;;;9.33;5.60;;;;;;;15.90;47.70;102452.97;6177580;23;20160;-63
2021/10/06 07:53:10;;;;;;;10.20;5.70;;;;;;;16.09;46.83;102462.66;6177648;23;20200;-61
2021/10/06 07:55:36;;;;;;;13.77;6.00;;;;;;;15.72;46.57;102388.19;6175138;23;20163;-61
2021/10/06 07:58:02;;;;;;;11.87;6.27;;;;;;;16.05;47.02;102448.72;6177259;23;20163;-61
2021/10/06 08:00:27;;;;;;;10.60;6.07;;;;;;;16.16;46.90;102432.53;6181332;23;20149;-61
2021/10/06 08:02:53;;;;;;;9.27;6.13;;;;;;;16.33;46.42;102450.19;6170701;23;20569;-62
2021/10/06 08:05:18;;;;;;;8.07;5.63;;;;;;;16.28;46.62;102436.69;6173228;23;20230;-61
2021/10/06 08:07:44;;;;;;;10.43;6.07;;;;;;;16.25;46.56;102434.78;6172875;23;20154;-62
2021/10/06 08:10:09;;;;;;;10.73;6.23;;;;;;;16.44;46.67;102434.81;6178986;23;20187;-62
2021/10/06 08:12:36;;;;;;;9.13;6.00;;;;;;;16.57;46.30;102434.97;6184152;23;20585;-62
2021/10/06 08:15:02;;;;;;;13.07;6.07;;;;;;;16.78;46.32;102432.53;6185546;23;20156;-63
2021/10/06 08:17:27;;;;;;;12.00;5.93;;;;;;;16.95;45.95;102436.19;6156064;23;20161;-63
2021/10/06 08:19:54;;;;;;;9.33;5.90;;;;;;;17.19;44.73;102432.03;6171393;23;20151;-63
2021/10/06 08:22:20;;;;;;;8.07;6.10;;;;;;;17.40;44.77;102428.00;6170300;23;20168;-63
2021/10/06 08:24:45;;;;;;;11.70;6.37;;;;;;;17.58;44.55;102427.13;6170255;23;20200;-63
